createdAt,value
2023-04-28T00:01:23.189Z,16.40
2023-04-28T00:03:49.577Z,16.36
2023-04-28T00:06:16.165Z,16.34
2023-04-28T00:08:42.572Z,16.31
2023-04-28T00:11:08.893Z,16.28
2023-04-28T00:13:35.300Z,16.25
2023-04-28T00:16:03.048Z,16.23
2023-04-28T00:18:29.454Z,16.20
2023-04-28T00:20:55.828Z,16.17
2023-04-28T00:23:22.124Z,16.14
2023-04-28T00:25:48.477Z,16.13
2023-04-28T00:28:26.847Z,16.05
2023-04-28T00:30:59.655Z,16.09
2023-04-28T00:33:26.021Z,16.06
2023-04-28T00:35:52.367Z,16.04
2023-04-28T00:38:18.650Z,16.01
2023-04-28T00:40:45.150Z,16.00
2023-04-28T00:43:11.477Z,15.98
2023-04-28T00:45:37.947Z,15.99
2023-04-28T00:48:04.653Z,15.96
2023-04-28T00:50:31.246Z,15.94
2023-04-28T00:52:57.603Z,15.92
2023-04-28T00:55:24.085Z,15.90
2023-04-28T00:57:50.377Z,15.89
2023-04-28T01:00:16.889Z,15.87
2023-04-28T01:02:43.356Z,15.86
2023-04-28T01:05:09.682Z,15.84
2023-04-28T01:07:35.980Z,15.80
2023-04-28T01:10:02.270Z,15.79
2023-04-28T01:12:28.555Z,15.77
2023-04-28T01:14:54.842Z,15.75
2023-04-28T01:17:21.216Z,15.75
2023-04-28T01:19:47.516Z,15.73
2023-04-28T01:22:13.818Z,15.72
2023-04-28T01:24:40.174Z,15.70
2023-04-28T01:27:07.396Z,15.69
2023-04-28T01:29:33.698Z,15.68
2023-04-28T01:32:00.073Z,15.67
2023-04-28T01:34:26.798Z,15.65
2023-04-28T01:36:53.136Z,15.65
2023-04-28T01:39:19.390Z,15.64
2023-04-28T01:41:45.718Z,15.63
2023-04-28T01:44:12.037Z,15.63
2023-04-28T01:46:38.414Z,15.61
2023-04-28T01:49:04.971Z,15.60
2023-04-28T01:51:31.256Z,15.58
2023-04-28T01:53:57.614Z,15.57
2023-04-28T01:56:23.890Z,15.56
2023-04-28T01:58:50.421Z,15.55
2023-04-28T02:01:16.959Z,15.54
2023-04-28T02:03:43.484Z,15.53
2023-04-28T02:06:09.899Z,15.51
2023-04-28T02:08:36.451Z,15.51
2023-04-28T02:11:03.154Z,15.50
2023-04-28T02:13:29.437Z,15.49
2023-04-28T02:15:56.187Z,15.49
2023-04-28T02:18:22.506Z,15.47
2023-04-28T02:20:49.145Z,15.46
2023-04-28T02:23:15.508Z,15.45
2023-04-28T02:25:41.955Z,15.44
2023-04-28T02:28:08.465Z,15.43
2023-04-28T02:30:34.970Z,15.42
2023-04-28T02:33:01.391Z,15.41
2023-04-28T02:35:27.774Z,15.39
2023-04-28T02:37:54.148Z,15.39
2023-04-28T02:40:20.443Z,15.37
2023-04-28T02:42:46.770Z,15.37
2023-04-28T02:45:13.160Z,15.35
2023-04-28T02:47:39.506Z,15.34
2023-04-28T02:50:06.160Z,15.33
2023-04-28T02:52:32.685Z,15.32
2023-04-28T02:54:59.219Z,15.30
2023-04-28T02:57:25.732Z,15.30
2023-04-28T02:59:52.114Z,15.29
2023-04-28T03:02:18.880Z,15.27
2023-04-28T03:04:45.336Z,15.26
2023-04-28T03:07:11.764Z,15.25
2023-04-28T03:09:38.603Z,15.25
2023-04-28T03:12:05.641Z,15.24
2023-04-28T03:14:32.176Z,15.23
2023-04-28T03:16:58.606Z,15.22
2023-04-28T03:19:25.018Z,15.21
2023-04-28T03:21:51.529Z,15.12
2023-04-28T03:24:18.157Z,15.21
2023-04-28T03:26:44.645Z,15.19
2023-04-28T03:29:11.312Z,15.19
2023-04-28T03:31:37.658Z,15.17
2023-04-28T03:34:04.254Z,15.16
2023-04-28T03:36:30.669Z,15.15
2023-04-28T03:38:57.038Z,15.14
2023-04-28T03:41:23.401Z,15.12
2023-04-28T03:43:49.685Z,15.11
2023-04-28T03:46:16.087Z,15.10
2023-04-28T03:48:42.681Z,15.10
2023-04-28T03:51:09.044Z,15.08
2023-04-28T03:53:35.373Z,15.06
2023-04-28T03:56:01.731Z,15.05
2023-04-28T03:58:28.224Z,15.04
2023-04-28T04:00:54.607Z,15.03
2023-04-28T04:03:21.021Z,15.01
2023-04-28T04:05:47.727Z,15.00
2023-04-28T04:08:14.262Z,15.01
2023-04-28T04:10:40.574Z,15.01
2023-04-28T04:13:06.885Z,15.03
2023-04-28T04:15:33.379Z,15.03
2023-04-28T04:17:59.750Z,15.03
2023-04-28T04:20:26.085Z,15.03
2023-04-28T04:22:52.434Z,15.04
2023-04-28T04:25:19.498Z,15.04
2023-04-28T04:27:50.080Z,15.04
2023-04-28T04:30:16.512Z,15.05
2023-04-28T04:32:42.995Z,15.04
2023-04-28T04:35:09.360Z,15.05
2023-04-28T04:37:35.988Z,15.05
2023-04-28T04:40:03.087Z,15.05
2023-04-28T04:42:30.034Z,15.05
2023-04-28T04:44:56.385Z,15.05
2023-04-28T04:47:22.764Z,15.05
2023-04-28T04:49:49.054Z,15.04
2023-04-28T04:52:15.381Z,15.03
2023-04-28T04:54:41.802Z,14.99
2023-04-28T04:57:08.082Z,14.98
2023-04-28T04:59:34.353Z,14.97
2023-04-28T05:02:00.731Z,14.97
2023-04-28T05:04:27.139Z,14.96
2023-04-28T05:06:53.500Z,14.96
2023-04-28T05:09:20.116Z,14.95
2023-04-28T05:11:46.448Z,14.94
2023-04-28T05:14:12.708Z,14.94
2023-04-28T05:16:39.077Z,14.94
2023-04-28T05:19:05.671Z,14.92
2023-04-28T05:21:31.968Z,14.93
2023-04-28T05:23:58.203Z,14.92
2023-04-28T05:26:24.664Z,14.92
2023-04-28T05:28:51.144Z,14.91
2023-04-28T05:31:17.633Z,14.90
2023-04-28T05:33:44.486Z,14.95
2023-04-28T05:36:11.348Z,15.07
2023-04-28T05:38:37.830Z,15.20
2023-04-28T05:41:04.196Z,15.33
2023-04-28T05:43:30.531Z,15.44
2023-04-28T05:48:41.395Z,15.62
2023-04-28T05:51:09.779Z,15.70
2023-04-28T05:53:36.133Z,15.76
2023-04-28T05:56:24.084Z,15.83
2023-04-28T05:58:59.324Z,15.87
2023-04-28T06:01:25.705Z,15.94
2023-04-28T06:03:52.242Z,15.98
2023-04-28T06:06:18.858Z,16.03
2023-04-28T06:14:36.166Z,16.19
2023-04-28T06:17:27.017Z,16.22
2023-04-28T06:19:53.855Z,16.27
2023-04-28T06:22:23.128Z,16.30
2023-04-28T06:24:54.928Z,16.32
2023-04-28T06:27:21.429Z,16.36
2023-04-28T06:29:50.884Z,16.38
2023-04-28T06:32:17.358Z,16.41
2023-04-28T06:34:57.177Z,16.42
2023-04-28T06:37:37.258Z,16.45
2023-04-28T06:40:08.388Z,16.47
2023-04-28T06:42:34.820Z,16.50
2023-04-28T06:45:01.179Z,16.52
2023-04-28T06:47:27.604Z,16.54
2023-04-28T06:49:58.149Z,16.56
2023-04-28T06:52:38.517Z,16.58
2023-04-28T06:55:05.746Z,16.41
2023-04-28T06:57:32.157Z,16.60
2023-04-28T06:59:58.632Z,16.60
2023-04-28T07:02:25.198Z,16.60
2023-04-28T07:04:51.914Z,16.61
2023-04-28T07:07:18.428Z,16.63
2023-04-28T07:09:47.036Z,16.66
2023-04-28T07:12:13.296Z,16.70
2023-04-28T07:14:39.634Z,16.71
2023-04-28T07:17:05.903Z,16.74
2023-04-28T07:19:32.383Z,16.76
2023-04-28T07:21:58.701Z,16.76
2023-04-28T07:24:25.019Z,16.76
2023-04-28T07:26:52.194Z,16.76
2023-04-28T07:29:18.966Z,16.81
2023-04-28T07:31:45.518Z,16.84
2023-04-28T07:34:12.154Z,16.87
2023-04-28T07:36:38.465Z,16.89
2023-04-28T07:39:05.085Z,16.90
2023-04-28T07:41:31.412Z,16.94
2023-04-28T07:43:57.733Z,16.97
2023-04-28T07:46:24.053Z,17.01
2023-04-28T07:48:51.645Z,17.04
2023-04-28T07:51:17.987Z,17.06
2023-04-28T07:53:44.373Z,17.08
2023-04-28T07:56:10.721Z,17.11
2023-04-28T07:58:37.040Z,17.15
2023-04-28T08:01:03.388Z,17.30
2023-04-28T08:03:30.003Z,17.42
2023-04-28T08:05:56.648Z,17.38
2023-04-28T08:08:23.284Z,17.42
2023-04-28T08:10:49.721Z,17.49
2023-04-28T08:13:16.110Z,17.59
2023-04-28T08:15:42.635Z,17.91
2023-04-28T08:18:08.943Z,18.16
2023-04-28T08:20:35.536Z,18.31
2023-04-28T08:23:01.931Z,18.21
2023-04-28T08:25:28.240Z,18.08
2023-04-28T08:27:55.869Z,17.99
2023-04-28T08:30:23.519Z,17.95
2023-04-28T08:32:49.837Z,17.91
2023-04-28T08:35:16.199Z,17.89
2023-04-28T08:37:42.506Z,17.88
2023-04-28T08:40:08.790Z,17.88
2023-04-28T08:42:35.113Z,17.91
2023-04-28T08:45:01.637Z,17.93
2023-04-28T08:47:28.168Z,17.96
2023-04-28T08:49:54.445Z,17.98
2023-04-28T08:52:20.745Z,17.99
2023-04-28T08:54:47.303Z,18.02
2023-04-28T08:57:13.639Z,18.02
2023-04-28T08:59:40.103Z,18.03
2023-04-28T09:02:06.519Z,18.05
2023-04-28T09:04:33.002Z,18.04
2023-04-28T09:06:59.404Z,18.05
2023-04-28T09:09:26.138Z,18.08
2023-04-28T09:11:52.775Z,18.08
2023-04-28T09:14:19.182Z,18.08
2023-04-28T09:16:45.962Z,18.09
2023-04-28T09:19:18.715Z,18.10
2023-04-28T09:21:48.180Z,18.10
2023-04-28T09:24:14.684Z,18.11
2023-04-28T09:26:41.231Z,18.14
2023-04-28T09:29:07.485Z,18.17
2023-04-28T09:31:34.161Z,18.20
2023-04-28T09:34:00.573Z,18.25
2023-04-28T09:36:26.837Z,18.27
2023-04-28T09:38:54.152Z,18.30
2023-04-28T09:41:21.314Z,18.33
2023-04-28T09:43:47.574Z,18.35
2023-04-28T09:46:13.891Z,18.37
2023-04-28T09:48:40.426Z,18.42
2023-04-28T09:51:06.876Z,18.46
2023-04-28T09:53:33.250Z,18.45
2023-04-28T09:55:59.572Z,18.42
2023-04-28T09:58:26.004Z,18.42
2023-04-28T10:00:52.353Z,18.41
2023-04-28T10:03:19.987Z,18.42
2023-04-28T10:05:48.303Z,18.43
2023-04-28T10:08:15.037Z,18.46
2023-04-28T10:10:41.684Z,18.47
2023-04-28T10:13:08.192Z,18.48
2023-04-28T10:15:34.573Z,18.47
2023-04-28T10:18:01.312Z,18.47
2023-04-28T10:20:27.719Z,18.45
2023-04-28T10:22:54.010Z,18.45
2023-04-28T10:25:20.329Z,18.45
2023-04-28T10:27:46.671Z,18.45
2023-04-28T10:30:26.453Z,18.45
2023-04-28T10:32:54.458Z,18.45
2023-04-28T10:35:20.909Z,18.45
2023-04-28T10:37:47.489Z,18.44
2023-04-28T10:40:13.963Z,18.45
2023-04-28T10:42:40.291Z,18.46
2023-04-28T10:45:06.586Z,18.47
2023-04-28T10:47:33.021Z,18.49
2023-04-28T10:49:59.318Z,18.52
2023-04-28T10:52:25.704Z,18.53
2023-04-28T10:54:52.109Z,18.54
2023-04-28T10:57:18.511Z,18.55
2023-04-28T10:59:44.772Z,18.57
2023-04-28T11:02:11.244Z,18.58
2023-04-28T11:04:37.948Z,18.60
2023-04-28T11:07:04.429Z,18.61
2023-04-28T11:09:31.411Z,18.63
2023-04-28T11:11:57.693Z,18.66
2023-04-28T11:14:24.448Z,18.67
2023-04-28T11:16:57.553Z,18.69
2023-04-28T11:19:24.705Z,18.71
2023-04-28T11:21:51.706Z,18.73
2023-04-28T11:24:18.131Z,18.75
2023-04-28T11:26:45.004Z,18.76
2023-04-28T11:29:11.388Z,18.79
2023-04-28T11:31:37.910Z,18.82
2023-04-28T11:34:04.327Z,18.87
2023-04-28T11:36:30.643Z,18.93
2023-04-28T11:52:16.878Z,19.17
2023-04-28T11:54:43.186Z,19.16
2023-04-28T11:57:09.498Z,19.16
2023-04-28T11:59:35.790Z,19.16
2023-04-28T12:02:02.325Z,19.15
2023-04-28T12:04:28.658Z,19.15
2023-04-28T12:06:54.978Z,19.13
2023-04-28T12:09:21.244Z,19.13
2023-04-28T12:11:47.546Z,19.13
2023-04-28T12:14:13.858Z,19.14
2023-04-28T12:16:40.139Z,19.16
2023-04-28T12:19:06.631Z,19.19
2023-04-28T12:21:32.968Z,19.23
2023-04-28T12:23:59.250Z,19.23
2023-04-28T12:26:25.796Z,19.25
2023-04-28T12:28:52.074Z,19.27
2023-04-28T12:31:18.585Z,19.31
2023-04-28T12:33:44.876Z,19.37
2023-04-28T12:36:11.120Z,19.38
2023-04-28T12:38:38.485Z,19.39
2023-04-28T12:41:04.922Z,19.39
2023-04-28T12:43:31.190Z,19.37
2023-04-28T12:45:57.556Z,19.36
2023-04-28T12:48:24.136Z,19.35
2023-04-28T12:50:50.526Z,19.34
2023-04-28T12:53:16.805Z,19.34
2023-04-28T12:55:46.479Z,19.35
2023-04-28T12:58:12.982Z,19.36
2023-04-28T13:00:39.303Z,19.36
2023-04-28T13:03:05.795Z,19.37
2023-04-28T13:05:32.286Z,19.37
2023-04-28T13:07:58.730Z,19.37
2023-04-28T13:10:25.146Z,19.37
2023-04-28T13:12:51.532Z,19.38
2023-04-28T13:15:18.191Z,19.40
2023-04-28T13:17:44.822Z,19.41
2023-04-28T13:20:11.451Z,19.43
2023-04-28T13:22:38.296Z,19.43
2023-04-28T13:25:04.874Z,19.46
2023-04-28T13:27:32.340Z,19.48
2023-04-28T13:29:58.900Z,19.50
2023-04-28T13:32:25.167Z,19.50
2023-04-28T13:34:51.796Z,19.50
2023-04-28T13:37:18.326Z,19.51
2023-04-28T13:39:45.052Z,19.50
2023-04-28T13:42:11.432Z,19.49
2023-04-28T13:44:37.841Z,19.50
2023-04-28T13:47:04.209Z,19.50
2023-04-28T13:49:30.780Z,19.49
2023-04-28T13:51:58.148Z,19.50
2023-04-28T13:54:24.463Z,19.50
2023-04-28T13:56:50.972Z,19.53
2023-04-28T13:59:17.327Z,19.54
2023-04-28T14:01:44.294Z,19.54
2023-04-28T14:04:11.093Z,19.56
2023-04-28T14:06:37.836Z,19.58
2023-04-28T14:09:04.252Z,19.62
2023-04-28T14:11:30.554Z,19.63
2023-04-28T14:13:56.820Z,19.64
2023-04-28T14:16:23.473Z,19.67
2023-04-28T14:18:50.126Z,19.70
2023-04-28T14:21:16.683Z,19.70
2023-04-28T14:23:43.141Z,19.68
2023-04-28T14:26:09.506Z,19.66
2023-04-28T14:28:36.025Z,19.65
2023-04-28T14:31:02.404Z,19.64
2023-04-28T14:33:28.744Z,19.65
2023-04-28T14:35:55.126Z,19.65
2023-04-28T14:38:21.534Z,19.65
2023-04-28T14:40:48.135Z,19.66
2023-04-28T14:43:14.975Z,19.66
2023-04-28T14:45:41.458Z,19.65
2023-04-28T14:48:07.988Z,19.65
2023-04-28T14:50:34.601Z,19.65
2023-04-28T14:53:01.085Z,19.65
2023-04-28T14:55:27.633Z,19.69
2023-04-28T14:57:54.033Z,19.70
2023-04-28T15:00:20.553Z,19.71
2023-04-28T15:02:47.099Z,19.73
2023-04-28T15:05:13.611Z,19.74
2023-04-28T15:07:40.318Z,19.76
2023-04-28T15:10:06.682Z,19.74
2023-04-28T15:12:33.015Z,19.75
2023-04-28T15:14:59.500Z,19.73
2023-04-28T15:17:25.896Z,19.75
2023-04-28T15:19:52.315Z,19.77
2023-04-28T15:22:18.727Z,19.79
2023-04-28T15:24:45.205Z,19.80
2023-04-28T15:27:11.590Z,19.85
2023-04-28T15:29:37.868Z,19.87
2023-04-28T15:32:06.500Z,19.87
2023-04-28T15:34:32.828Z,19.89
2023-04-28T15:36:59.300Z,19.93
2023-04-28T15:42:09.029Z,19.95
2023-04-28T15:44:35.399Z,19.96
2023-04-28T15:47:01.719Z,19.95
2023-04-28T15:49:28.213Z,19.96
2023-04-28T15:51:54.539Z,19.97
2023-04-28T15:54:20.870Z,19.98
2023-04-28T15:56:47.339Z,19.98
2023-04-28T15:59:13.973Z,20.00
2023-04-28T16:01:40.384Z,20.02
2023-04-28T16:04:07.103Z,20.02
2023-04-28T16:06:33.903Z,20.03
2023-04-28T16:09:00.252Z,20.04
2023-04-28T16:11:26.906Z,20.05
2023-04-28T16:13:53.586Z,20.07
2023-04-28T16:16:21.495Z,20.09
2023-04-28T16:18:47.836Z,20.10
2023-04-28T16:21:14.637Z,20.13
2023-04-28T16:23:43.942Z,20.19
2023-04-28T16:26:10.288Z,20.24
2023-04-28T16:28:37.373Z,20.25
2023-04-28T16:31:03.663Z,20.24
2023-04-28T16:33:30.421Z,20.24
2023-04-28T16:35:57.093Z,20.24
2023-04-28T16:38:23.536Z,20.23
2023-04-28T16:40:52.531Z,20.25
2023-04-28T16:43:22.280Z,20.25
2023-04-28T16:45:48.662Z,20.25
2023-04-28T16:48:15.241Z,20.25
2023-04-28T16:50:41.649Z,20.24
2023-04-28T16:53:08.071Z,20.25
2023-04-28T16:55:34.495Z,20.27
2023-04-28T16:58:00.940Z,20.27
2023-04-28T17:00:27.248Z,20.26
2023-04-28T17:02:53.681Z,20.26
2023-04-28T17:05:20.318Z,20.24
2023-04-28T17:07:46.663Z,20.25
2023-04-28T17:10:13.603Z,20.25
2023-04-28T17:12:39.960Z,20.26
2023-04-28T17:15:06.447Z,20.26
2023-04-28T17:17:33.103Z,20.25
2023-04-28T17:19:59.985Z,20.22
2023-04-28T17:22:26.406Z,20.21
2023-04-28T17:24:52.945Z,20.20
2023-04-28T17:27:22.526Z,20.20
2023-04-28T17:29:49.150Z,20.19
2023-04-28T17:32:15.628Z,20.17
2023-04-28T17:34:42.118Z,20.14
2023-04-28T17:37:08.606Z,20.15
2023-04-28T17:39:35.016Z,20.13
2023-04-28T17:42:01.605Z,20.12
2023-04-28T17:44:27.941Z,20.12
2023-04-28T17:46:54.429Z,20.11
2023-04-28T17:49:20.929Z,20.10
2023-04-28T17:51:47.246Z,20.11
2023-04-28T17:54:13.596Z,20.10
2023-04-28T17:56:39.897Z,20.12
2023-04-28T17:59:06.531Z,20.11
2023-04-28T18:01:32.923Z,20.11
2023-04-28T18:03:59.251Z,20.12
2023-04-28T18:06:25.912Z,20.11
2023-04-28T18:08:52.214Z,20.11
2023-04-28T18:11:18.610Z,20.10
2023-04-28T18:13:46.650Z,20.11
2023-04-28T18:16:13.648Z,20.09
2023-04-28T18:18:40.371Z,20.08
2023-04-28T18:21:06.891Z,20.07
2023-04-28T18:23:33.228Z,20.06
2023-04-28T18:25:59.706Z,20.05
2023-04-28T18:28:26.001Z,20.04
2023-04-28T18:30:52.580Z,20.02
2023-04-28T18:33:20.645Z,20.01
2023-04-28T18:35:49.780Z,20.00
2023-04-28T18:38:16.087Z,19.99
2023-04-28T18:40:42.433Z,19.98
2023-04-28T18:43:08.758Z,19.97
2023-04-28T18:45:35.128Z,19.96
2023-04-28T18:48:04.750Z,19.95
2023-04-28T18:50:31.514Z,19.93
2023-04-28T18:52:57.903Z,19.92
2023-04-28T18:55:24.258Z,19.89
2023-04-28T18:57:50.620Z,19.89
2023-04-28T19:00:17.169Z,19.89
2023-04-28T19:02:43.674Z,19.86
2023-04-28T19:05:10.155Z,19.85
2023-04-28T19:07:37.042Z,19.85
2023-04-28T19:10:03.429Z,19.82
2023-04-28T19:12:30.035Z,19.81
2023-04-28T19:14:56.470Z,19.81
2023-04-28T19:17:22.904Z,19.81
2023-04-28T19:19:49.349Z,19.82
2023-04-28T19:22:16.210Z,19.82
2023-04-28T19:24:42.782Z,19.82
2023-04-28T19:27:09.304Z,19.83
2023-04-28T19:29:35.807Z,19.85
2023-04-28T19:32:02.182Z,19.85
2023-04-28T19:34:28.499Z,19.85
2023-04-28T19:36:55.052Z,19.86
2023-04-28T19:39:22.541Z,19.85
2023-04-28T19:41:52.135Z,19.86
2023-04-28T19:44:18.555Z,19.85
2023-04-28T19:46:46.325Z,19.86
2023-04-28T19:49:13.132Z,19.84
2023-04-28T19:51:39.572Z,19.85
2023-04-28T19:54:06.007Z,19.84
2023-04-28T19:56:32.405Z,19.84
2023-04-28T19:58:58.792Z,19.85
2023-04-28T20:01:25.472Z,19.84
2023-04-28T20:03:52.055Z,19.82
2023-04-28T20:06:26.066Z,19.82
2023-04-28T20:08:52.737Z,19.81
2023-04-28T20:11:19.639Z,19.81
2023-04-28T20:13:46.236Z,19.81
2023-04-28T20:16:12.594Z,19.80
2023-04-28T20:18:39.138Z,19.80
2023-04-28T20:21:05.539Z,19.79
2023-04-28T20:23:31.971Z,19.79
2023-04-28T20:25:58.353Z,19.78
2023-04-28T20:28:24.691Z,19.77
2023-04-28T20:30:51.022Z,19.77
2023-04-28T20:33:17.379Z,19.76
2023-04-28T20:35:43.734Z,19.76
2023-04-28T20:38:10.023Z,19.74
2023-04-28T20:40:36.428Z,19.74
2023-04-28T20:43:03.093Z,19.74
2023-04-28T20:45:29.512Z,19.74
2023-04-28T20:47:56.591Z,19.72
2023-04-28T20:50:23.481Z,19.71
2023-04-28T20:52:49.846Z,19.72
2023-04-28T20:55:16.190Z,19.70
2023-04-28T20:57:42.570Z,19.71
2023-04-28T21:00:08.935Z,19.70
2023-04-28T21:02:35.397Z,19.70
2023-04-28T21:05:01.796Z,19.70
2023-04-28T21:07:28.186Z,19.71
2023-04-28T21:09:54.504Z,19.71
2023-04-28T21:12:32.722Z,19.71
2023-04-28T21:15:02.555Z,19.71
2023-04-28T21:17:29.061Z,19.71
2023-04-28T21:19:55.634Z,19.70
2023-04-28T21:22:21.925Z,19.71
2023-04-28T21:24:48.452Z,19.70
2023-04-28T21:27:14.790Z,19.69
2023-04-28T21:29:41.105Z,19.70
2023-04-28T21:32:07.494Z,19.69
2023-04-28T21:34:33.953Z,19.67
2023-04-28T21:37:00.237Z,19.67
2023-04-28T21:39:26.640Z,19.65
2023-04-28T21:41:52.950Z,19.66
2023-04-28T21:44:19.386Z,19.64
2023-04-28T21:46:45.740Z,19.64
2023-04-28T21:49:12.602Z,19.63
2023-04-28T21:51:38.990Z,19.64
2023-04-28T21:54:05.376Z,19.63
2023-04-28T21:56:31.684Z,19.62
2023-04-28T21:58:58.002Z,19.62
2023-04-28T22:01:24.357Z,19.61
2023-04-28T22:03:51.046Z,19.61
2023-04-28T22:06:17.619Z,19.59
2023-04-28T22:08:43.955Z,19.60
2023-04-28T22:11:10.382Z,19.59
2023-04-28T22:13:37.002Z,19.58
2023-04-28T22:16:03.673Z,19.57
2023-04-28T22:18:30.219Z,19.56
2023-04-28T22:20:56.587Z,19.55
2023-04-28T22:23:22.974Z,19.54
2023-04-28T22:25:49.336Z,19.54
2023-04-28T22:28:15.753Z,19.54
2023-04-28T22:30:42.076Z,19.52
2023-04-28T22:33:08.412Z,19.52
2023-04-28T22:35:34.793Z,19.52
2023-04-28T22:38:01.090Z,19.50
2023-04-28T22:40:27.411Z,19.51
2023-04-28T22:42:54.198Z,19.50
2023-04-28T22:45:20.523Z,19.49
2023-04-28T22:47:46.891Z,19.48
2023-04-28T22:50:13.239Z,19.47
2023-04-28T22:52:42.624Z,19.47
2023-04-28T22:55:09.068Z,19.47
2023-04-28T22:57:35.437Z,19.46
2023-04-28T23:00:01.958Z,19.46
2023-04-28T23:02:28.469Z,19.45
2023-04-28T23:04:55.041Z,19.45
2023-04-28T23:07:21.370Z,19.43
2023-04-28T23:09:47.718Z,19.41
2023-04-28T23:12:16.566Z,19.42
2023-04-28T23:14:42.840Z,19.42
2023-04-28T23:17:09.178Z,19.41
2023-04-28T23:19:35.675Z,19.41
2023-04-28T23:22:02.028Z,19.40
2023-04-28T23:24:28.403Z,19.40
2023-04-28T23:26:54.786Z,19.40
2023-04-28T23:29:21.159Z,19.40
2023-04-28T23:31:47.639Z,19.39
2023-04-28T23:34:14.069Z,19.39
2023-04-28T23:36:40.438Z,19.38
2023-04-28T23:39:06.717Z,19.38
2023-04-28T23:41:33.112Z,19.37
2023-04-28T23:43:59.485Z,19.37
2023-04-28T23:46:25.859Z,19.36
2023-04-28T23:48:52.194Z,19.36
2023-04-28T23:51:18.569Z,19.35
2023-04-28T23:53:44.900Z,19.35
2023-04-28T23:56:11.378Z,19.35
2023-04-28T23:58:38.293Z,19.34
